sensor_id;sensor_type;location;lat;lon;timestamp;pressure;altitude;pressure_sealevel;temperature;humidity
64853;BME280;56050;55.558;-4.644;2023-01-30T00:00:12;101700.88;;;8.58;57.47
64853;BME280;56050;55.558;-4.644;2023-01-30T00:02:38;101710.66;;;8.66;57.29
64853;BME280;56050;55.558;-4.644;2023-01-30T00:05:03;101689.59;;;8.68;58.40
64853;BME280;56050;55.558;-4.644;2023-01-30T00:07:29;101684.50;;;8.63;59.47
64853;BME280;56050;55.558;-4.644;2023-01-30T00:09:54;101708.94;;;8.58;59.74
64853;BME280;56050;55.558;-4.644;2023-01-30T00:12:20;101704.94;;;8.52;60.19
64853;BME280;56050;55.558;-4.644;2023-01-30T00:14:45;101684.16;;;8.49;59.89
64853;BME280;56050;55.558;-4.644;2023-01-30T00:17:10;101682.53;;;8.45;59.24
64853;BME280;56050;55.558;-4.644;2023-01-30T00:19:35;101669.16;;;8.48;59.55
64853;BME280;56050;55.558;-4.644;2023-01-30T00:22:01;101673.78;;;8.48;58.77
64853;BME280;56050;55.558;-4.644;2023-01-30T00:24:26;101661.91;;;8.49;58.85
64853;BME280;56050;55.558;-4.644;2023-01-30T00:26:52;101664.25;;;8.50;58.92
64853;BME280;56050;55.558;-4.644;2023-01-30T00:29:17;101666.25;;;8.53;59.54
64853;BME280;56050;55.558;-4.644;2023-01-30T00:31:42;101671.63;;;8.53;58.77
64853;BME280;56050;55.558;-4.644;2023-01-30T00:34:08;101672.03;;;8.55;58.88
64853;BME280;56050;55.558;-4.644;2023-01-30T00:36:33;101669.78;;;8.57;57.81
64853;BME280;56050;55.558;-4.644;2023-01-30T00:38:59;101679.03;;;8.60;57.18
64853;BME280;56050;55.558;-4.644;2023-01-30T00:41:24;101682.59;;;8.64;56.66
64853;BME280;56050;55.558;-4.644;2023-01-30T00:44:09;101672.69;;;8.68;55.45
64853;BME280;56050;55.558;-4.644;2023-01-30T00:46:53;101670.44;;;8.70;55.46
64853;BME280;56050;55.558;-4.644;2023-01-30T00:49:31;101668.09;;;8.68;54.66
64853;BME280;56050;55.558;-4.644;2023-01-30T00:51:57;101672.88;;;8.75;55.18
64853;BME280;56050;55.558;-4.644;2023-01-30T00:54:23;101672.09;;;8.74;55.28
64853;BME280;56050;55.558;-4.644;2023-01-30T00:56:48;101681.25;;;8.73;55.86
64853;BME280;56050;55.558;-4.644;2023-01-30T00:59:14;101664.34;;;8.73;56.14
64853;BME280;56050;55.558;-4.644;2023-01-30T01:01:39;101676.31;;;8.75;55.56
64853;BME280;56050;55.558;-4.644;2023-01-30T01:04:05;101680.66;;;8.80;55.98
64853;BME280;56050;55.558;-4.644;2023-01-30T01:06:35;101690.97;;;8.78;56.21
64853;BME280;56050;55.558;-4.644;2023-01-30T01:09:02;101681.06;;;8.82;56.64
64853;BME280;56050;55.558;-4.644;2023-01-30T01:11:27;101684.25;;;8.88;56.78
64853;BME280;56050;55.558;-4.644;2023-01-30T01:13:55;101693.94;;;8.92;57.49
64853;BME280;56050;55.558;-4.644;2023-01-30T01:16:21;101686.06;;;8.99;58.34
64853;BME280;56050;55.558;-4.644;2023-01-30T01:18:47;101692.28;;;9.03;59.75
64853;BME280;56050;55.558;-4.644;2023-01-30T01:21:13;101693.00;;;9.00;60.21
64853;BME280;56050;55.558;-4.644;2023-01-30T01:23:38;101687.19;;;8.98;60.35
64853;BME280;56050;55.558;-4.644;2023-01-30T01:26:04;101709.47;;;8.99;61.07
64853;BME280;56050;55.558;-4.644;2023-01-30T01:28:29;101717.44;;;8.95;59.86
64853;BME280;56050;55.558;-4.644;2023-01-30T01:30:55;101702.88;;;8.96;59.16
64853;BME280;56050;55.558;-4.644;2023-01-30T01:33:25;101733.16;;;8.93;58.14
64853;BME280;56050;55.558;-4.644;2023-01-30T01:35:54;101700.81;;;8.90;57.22
64853;BME280;56050;55.558;-4.644;2023-01-30T01:38:20;101701.88;;;8.85;57.13
64853;BME280;56050;55.558;-4.644;2023-01-30T01:40:45;101705.63;;;8.80;56.62
64853;BME280;56050;55.558;-4.644;2023-01-30T01:44:12;101701.97;;;8.73;57.18
64853;BME280;56050;55.558;-4.644;2023-01-30T01:46:19;101715.56;;;8.64;57.79
64853;BME280;56050;55.558;-4.644;2023-01-30T01:48:55;101706.75;;;8.64;58.88
64853;BME280;56050;55.558;-4.644;2023-01-30T01:51:37;101727.28;;;8.56;59.33
64853;BME280;56050;55.558;-4.644;2023-01-30T01:54:08;101716.47;;;8.53;59.24
64853;BME280;56050;55.558;-4.644;2023-01-30T01:56:37;101728.34;;;8.52;60.32
64853;BME280;56050;55.558;-4.644;2023-01-30T01:59:13;101743.25;;;8.49;61.25
64853;BME280;56050;55.558;-4.644;2023-01-30T02:01:43;101747.81;;;8.33;62.60
64853;BME280;56050;55.558;-4.644;2023-01-30T02:04:09;101739.28;;;8.15;63.01
64853;BME280;56050;55.558;-4.644;2023-01-30T02:06:38;101743.50;;;8.01;63.56
64853;BME280;56050;55.558;-4.644;2023-01-30T02:09:08;101763.66;;;7.95;63.34
64853;BME280;56050;55.558;-4.644;2023-01-30T02:14:10;101742.88;;;7.92;63.71
64853;BME280;56050;55.558;-4.644;2023-01-30T02:16:37;101735.69;;;7.96;63.43
64853;BME280;56050;55.558;-4.644;2023-01-30T02:19:06;101731.53;;;7.98;63.08
64853;BME280;56050;55.558;-4.644;2023-01-30T02:22:06;101724.38;;;8.02;62.41
64853;BME280;56050;55.558;-4.644;2023-01-30T02:27:17;101721.97;;;8.13;62.43
64853;BME280;56050;55.558;-4.644;2023-01-30T02:32:22;101734.78;;;8.19;62.17
64853;BME280;56050;55.558;-4.644;2023-01-30T02:35:30;101739.81;;;8.21;62.68
64853;BME280;56050;55.558;-4.644;2023-01-30T02:38:28;101762.94;;;8.25;62.72
64853;BME280;56050;55.558;-4.644;2023-01-30T02:43:58;101755.53;;;8.35;62.80
64853;BME280;56050;55.558;-4.644;2023-01-30T02:49:22;101751.88;;;8.43;63.00
64853;BME280;56050;55.558;-4.644;2023-01-30T02:51:53;101738.22;;;8.48;62.95
64853;BME280;56050;55.558;-4.644;2023-01-30T02:54:20;101750.59;;;8.52;63.07
64853;BME280;56050;55.558;-4.644;2023-01-30T02:56:50;101749.13;;;8.55;62.97
64853;BME280;56050;55.558;-4.644;2023-01-30T02:59:36;101757.59;;;8.57;62.54
64853;BME280;56050;55.558;-4.644;2023-01-30T03:10:53;101747.31;;;8.74;61.45
64853;BME280;56050;55.558;-4.644;2023-01-30T03:16:18;101778.06;;;8.77;60.16
64853;BME280;56050;55.558;-4.644;2023-01-30T03:18:46;101770.44;;;8.79;60.57
64853;BME280;56050;55.558;-4.644;2023-01-30T03:21:12;101771.63;;;8.81;60.21
64853;BME280;56050;55.558;-4.644;2023-01-30T03:23:37;101760.56;;;8.83;60.17
64853;BME280;56050;55.558;-4.644;2023-01-30T03:26:03;101760.97;;;8.85;60.07
64853;BME280;56050;55.558;-4.644;2023-01-30T03:28:29;101753.88;;;8.77;59.68
64853;BME280;56050;55.558;-4.644;2023-01-30T03:30:54;101749.63;;;8.76;60.05
64853;BME280;56050;55.558;-4.644;2023-01-30T03:33:20;101747.31;;;8.74;60.07
64853;BME280;56050;55.558;-4.644;2023-01-30T03:35:45;101759.78;;;8.67;60.26
64853;BME280;56050;55.558;-4.644;2023-01-30T03:38:11;101776.06;;;8.74;60.55
64853;BME280;56050;55.558;-4.644;2023-01-30T03:40:36;101745.41;;;8.75;60.48
64853;BME280;56050;55.558;-4.644;2023-01-30T03:43:01;101762.63;;;8.74;60.41
64853;BME280;56050;55.558;-4.644;2023-01-30T03:45:27;101778.75;;;8.74;60.33
64853;BME280;56050;55.558;-4.644;2023-01-30T03:47:52;101757.16;;;8.70;60.53
64853;BME280;56050;55.558;-4.644;2023-01-30T03:50:18;101786.13;;;8.77;60.58
64853;BME280;56050;55.558;-4.644;2023-01-30T03:52:43;101757.63;;;8.72;59.91
64853;BME280;56050;55.558;-4.644;2023-01-30T03:55:09;101756.22;;;8.78;59.93
64853;BME280;56050;55.558;-4.644;2023-01-30T03:57:34;101759.34;;;8.80;58.98
64853;BME280;56050;55.558;-4.644;2023-01-30T03:59:59;101782.91;;;8.87;58.59
64853;BME280;56050;55.558;-4.644;2023-01-30T04:02:25;101774.50;;;8.89;58.98
64853;BME280;56050;55.558;-4.644;2023-01-30T04:04:51;101777.25;;;8.92;59.17
64853;BME280;56050;55.558;-4.644;2023-01-30T04:07:17;101786.88;;;8.93;58.83
64853;BME280;56050;55.558;-4.644;2023-01-30T04:09:43;101791.22;;;8.98;58.92
64853;BME280;56050;55.558;-4.644;2023-01-30T04:12:08;101789.75;;;9.00;58.80
64853;BME280;56050;55.558;-4.644;2023-01-30T04:14:34;101812.47;;;9.03;59.42
64853;BME280;56050;55.558;-4.644;2023-01-30T04:16:59;101806.72;;;9.04;59.00
64853;BME280;56050;55.558;-4.644;2023-01-30T04:19:25;101802.66;;;9.10;58.66
64853;BME280;56050;55.558;-4.644;2023-01-30T04:21:50;101809.59;;;9.11;59.19
64853;BME280;56050;55.558;-4.644;2023-01-30T04:24:16;101815.41;;;9.13;58.73
64853;BME280;56050;55.558;-4.644;2023-01-30T04:26:41;101809.59;;;9.11;58.65
64853;BME280;56050;55.558;-4.644;2023-01-30T04:29:06;101803.50;;;9.14;58.55
64853;BME280;56050;55.558;-4.644;2023-01-30T04:31:32;101797.00;;;9.15;58.67
64853;BME280;56050;55.558;-4.644;2023-01-30T04:33:57;101810.03;;;9.13;59.16
64853;BME280;56050;55.558;-4.644;2023-01-30T04:36:23;101797.28;;;9.10;59.61
64853;BME280;56050;55.558;-4.644;2023-01-30T04:38:48;101817.22;;;9.09;59.82
64853;BME280;56050;55.558;-4.644;2023-01-30T04:41:14;101812.63;;;9.10;59.84
64853;BME280;56050;55.558;-4.644;2023-01-30T04:43:39;101832.13;;;9.07;59.96
64853;BME280;56050;55.558;-4.644;2023-01-30T04:46:05;101832.53;;;9.09;60.46
64853;BME280;56050;55.558;-4.644;2023-01-30T04:48:30;101841.34;;;9.06;61.11
64853;BME280;56050;55.558;-4.644;2023-01-30T04:50:56;101849.72;;;9.04;61.55
64853;BME280;56050;55.558;-4.644;2023-01-30T04:53:22;101850.44;;;9.01;62.01
64853;BME280;56050;55.558;-4.644;2023-01-30T04:55:48;101854.69;;;9.02;62.01
64853;BME280;56050;55.558;-4.644;2023-01-30T04:58:15;101866.97;;;9.03;62.31
64853;BME280;56050;55.558;-4.644;2023-01-30T05:00:40;101875.81;;;9.04;62.47
64853;BME280;56050;55.558;-4.644;2023-01-30T05:03:06;101902.00;;;9.07;62.77
64853;BME280;56050;55.558;-4.644;2023-01-30T05:05:32;101887.09;;;9.09;62.75
64853;BME280;56050;55.558;-4.644;2023-01-30T05:07:58;101894.13;;;8.98;63.54
64853;BME280;56050;55.558;-4.644;2023-01-30T05:10:23;101899.81;;;8.81;64.95
64853;BME280;56050;55.558;-4.644;2023-01-30T05:12:49;101919.53;;;8.57;66.28
64853;BME280;56050;55.558;-4.644;2023-01-30T05:15:14;101907.44;;;8.36;68.17
64853;BME280;56050;55.558;-4.644;2023-01-30T05:17:40;101927.59;;;8.17;68.88
64853;BME280;56050;55.558;-4.644;2023-01-30T05:20:07;101901.72;;;7.97;69.00
64853;BME280;56050;55.558;-4.644;2023-01-30T05:22:33;101909.78;;;7.85;68.92
64853;BME280;56050;55.558;-4.644;2023-01-30T05:24:59;101917.72;;;7.82;68.95
64853;BME280;56050;55.558;-4.644;2023-01-30T05:27:24;101911.47;;;7.78;68.49
64853;BME280;56050;55.558;-4.644;2023-01-30T05:29:49;101914.94;;;7.78;67.88
64853;BME280;56050;55.558;-4.644;2023-01-30T05:32:17;101923.66;;;7.75;68.30
64853;BME280;56050;55.558;-4.644;2023-01-30T05:34:42;101932.16;;;7.77;68.33
64853;BME280;56050;55.558;-4.644;2023-01-30T05:37:08;101937.28;;;7.82;68.35
64853;BME280;56050;55.558;-4.644;2023-01-30T05:39:34;101934.34;;;7.87;68.23
64853;BME280;56050;55.558;-4.644;2023-01-30T05:42:00;101922.94;;;7.90;68.32
64853;BME280;56050;55.558;-4.644;2023-01-30T05:44:25;101938.94;;;7.99;68.15
64853;BME280;56050;55.558;-4.644;2023-01-30T05:46:50;101923.38;;;8.04;68.13
64853;BME280;56050;55.558;-4.644;2023-01-30T05:49:16;101941.25;;;8.12;68.17
64853;BME280;56050;55.558;-4.644;2023-01-30T05:51:41;101945.63;;;8.17;68.11
64853;BME280;56050;55.558;-4.644;2023-01-30T05:54:07;101939.09;;;8.18;68.10
64853;BME280;56050;55.558;-4.644;2023-01-30T05:56:32;101937.75;;;8.24;67.88
64853;BME280;56050;55.558;-4.644;2023-01-30T05:58:59;101943.25;;;8.27;67.99
64853;BME280;56050;55.558;-4.644;2023-01-30T06:01:26;101932.97;;;8.30;68.42
64853;BME280;56050;55.558;-4.644;2023-01-30T06:03:52;101927.25;;;8.31;68.41
64853;BME280;56050;55.558;-4.644;2023-01-30T06:06:18;101935.63;;;8.30;68.35
64853;BME280;56050;55.558;-4.644;2023-01-30T06:08:44;101939.22;;;8.34;68.05
64853;BME280;56050;55.558;-4.644;2023-01-30T06:11:12;101934.28;;;8.36;67.62
64853;BME280;56050;55.558;-4.644;2023-01-30T06:13:38;101937.06;;;8.39;67.38
64853;BME280;56050;55.558;-4.644;2023-01-30T06:16:05;101944.22;;;8.47;67.43
64853;BME280;56050;55.558;-4.644;2023-01-30T06:18:31;101946.09;;;8.47;67.51
64853;BME280;56050;55.558;-4.644;2023-01-30T06:20:57;101949.22;;;8.49;67.03
64853;BME280;56050;55.558;-4.644;2023-01-30T06:23:22;101946.22;;;8.50;67.22
64853;BME280;56050;55.558;-4.644;2023-01-30T06:25:49;101943.97;;;8.52;67.54
64853;BME280;56050;55.558;-4.644;2023-01-30T06:28:15;101936.34;;;8.54;67.79
64853;BME280;56050;55.558;-4.644;2023-01-30T06:30:41;101957.03;;;8.54;67.73
64853;BME280;56050;55.558;-4.644;2023-01-30T06:33:07;101950.97;;;8.57;67.53
64853;BME280;56050;55.558;-4.644;2023-01-30T06:35:33;101956.34;;;8.57;67.27
64853;BME280;56050;55.558;-4.644;2023-01-30T06:37:58;101951.78;;;8.57;67.00
64853;BME280;56050;55.558;-4.644;2023-01-30T06:40:23;101970.75;;;8.64;66.78
64853;BME280;56050;55.558;-4.644;2023-01-30T06:42:49;101968.41;;;8.63;66.28
64853;BME280;56050;55.558;-4.644;2023-01-30T06:45:16;101975.44;;;8.67;65.95
64853;BME280;56050;55.558;-4.644;2023-01-30T06:47:49;101984.28;;;8.68;65.51
64853;BME280;56050;55.558;-4.644;2023-01-30T06:50:16;101985.75;;;8.65;65.73
64853;BME280;56050;55.558;-4.644;2023-01-30T06:52:43;102005.78;;;8.68;66.00
64853;BME280;56050;55.558;-4.644;2023-01-30T06:55:10;102000.09;;;8.69;65.04
64853;BME280;56050;55.558;-4.644;2023-01-30T06:57:35;102018.22;;;8.72;64.51
64853;BME280;56050;55.558;-4.644;2023-01-30T07:00:06;102016.75;;;8.75;64.65
64853;BME280;56050;55.558;-4.644;2023-01-30T07:02:32;102019.84;;;8.77;64.62
64853;BME280;56050;55.558;-4.644;2023-01-30T07:05:00;102021.88;;;8.80;64.43
64853;BME280;56050;55.558;-4.644;2023-01-30T07:07:27;102025.34;;;8.80;64.80
64853;BME280;56050;55.558;-4.644;2023-01-30T07:09:53;102031.03;;;8.79;64.54
64853;BME280;56050;55.558;-4.644;2023-01-30T07:12:18;102034.06;;;8.77;64.51
64853;BME280;56050;55.558;-4.644;2023-01-30T07:14:44;102036.84;;;8.81;64.71
64853;BME280;56050;55.558;-4.644;2023-01-30T07:17:09;102046.47;;;8.82;64.87
64853;BME280;56050;55.558;-4.644;2023-01-30T07:19:35;102034.50;;;8.79;64.95
64853;BME280;56050;55.558;-4.644;2023-01-30T07:22:00;102049.06;;;8.78;65.51
64853;BME280;56050;55.558;-4.644;2023-01-30T07:24:26;102049.53;;;8.80;65.67
64853;BME280;56050;55.558;-4.644;2023-01-30T07:26:51;102052.97;;;8.81;65.78
64853;BME280;56050;55.558;-4.644;2023-01-30T07:29:16;102054.53;;;8.82;65.99
64853;BME280;56050;55.558;-4.644;2023-01-30T07:31:42;102057.66;;;8.84;66.08
64853;BME280;56050;55.558;-4.644;2023-01-30T07:34:07;102063.81;;;8.84;66.19
64853;BME280;56050;55.558;-4.644;2023-01-30T07:36:32;102066.19;;;8.86;66.23
64853;BME280;56050;55.558;-4.644;2023-01-30T07:38:59;102083.41;;;8.85;66.47
64853;BME280;56050;55.558;-4.644;2023-01-30T07:41:26;102078.41;;;8.83;66.41
64853;BME280;56050;55.558;-4.644;2023-01-30T07:43:52;102087.88;;;8.81;66.36
64853;BME280;56050;55.558;-4.644;2023-01-30T07:46:17;102103.56;;;8.79;66.44
64853;BME280;56050;55.558;-4.644;2023-01-30T07:48:43;102105.16;;;8.80;66.60
64853;BME280;56050;55.558;-4.644;2023-01-30T07:51:09;102105.16;;;8.80;66.51
64853;BME280;56050;55.558;-4.644;2023-01-30T07:53:34;102117.44;;;8.81;66.57
64853;BME280;56050;55.558;-4.644;2023-01-30T07:56:05;102121.38;;;8.83;66.42
64853;BME280;56050;55.558;-4.644;2023-01-30T07:58:30;102129.88;;;8.85;66.48
64853;BME280;56050;55.558;-4.644;2023-01-30T08:00:55;102121.47;;;8.87;66.35
64853;BME280;56050;55.558;-4.644;2023-01-30T08:03:21;102116.22;;;8.91;66.33
64853;BME280;56050;55.558;-4.644;2023-01-30T08:05:46;102126.03;;;8.99;66.52
64853;BME280;56050;55.558;-4.644;2023-01-30T08:08:12;102158.19;;;8.95;66.70
64853;BME280;56050;55.558;-4.644;2023-01-30T08:10:37;102133.56;;;8.81;67.27
64853;BME280;56050;55.558;-4.644;2023-01-30T08:13:02;102145.91;;;8.70;68.05
64853;BME280;56050;55.558;-4.644;2023-01-30T08:15:28;102156.69;;;8.58;68.33
64853;BME280;56050;55.558;-4.644;2023-01-30T08:17:56;102162.72;;;8.43;68.43
64853;BME280;56050;55.558;-4.644;2023-01-30T08:20:22;102168.88;;;8.31;68.86
64853;BME280;56050;55.558;-4.644;2023-01-30T08:22:48;102168.97;;;8.22;69.05
64853;BME280;56050;55.558;-4.644;2023-01-30T08:25:13;102178.66;;;8.15;69.30
64853;BME280;56050;55.558;-4.644;2023-01-30T08:27:39;102180.03;;;8.09;69.39
64853;BME280;56050;55.558;-4.644;2023-01-30T08:30:04;102182.56;;;8.05;69.44
64853;BME280;56050;55.558;-4.644;2023-01-30T08:32:30;102184.34;;;8.01;69.44
64853;BME280;56050;55.558;-4.644;2023-01-30T08:34:55;102179.31;;;8.00;69.71
64853;BME280;56050;55.558;-4.644;2023-01-30T08:37:20;102178.97;;;8.01;69.86
64853;BME280;56050;55.558;-4.644;2023-01-30T08:39:47;102176.28;;;8.01;70.20
64853;BME280;56050;55.558;-4.644;2023-01-30T08:42:13;102176.28;;;8.01;70.16
64853;BME280;56050;55.558;-4.644;2023-01-30T08:44:38;102180.34;;;8.07;70.16
64853;BME280;56050;55.558;-4.644;2023-01-30T08:47:04;102194.66;;;8.11;70.50
64853;BME280;56050;55.558;-4.644;2023-01-30T08:49:29;102188.63;;;8.14;70.36
64853;BME280;56050;55.558;-4.644;2023-01-30T08:51:54;102190.31;;;8.19;70.51
64853;BME280;56050;55.558;-4.644;2023-01-30T08:54:20;102190.63;;;8.17;70.46
64853;BME280;56050;55.558;-4.644;2023-01-30T08:56:45;102194.88;;;8.18;70.50
64853;BME280;56050;55.558;-4.644;2023-01-30T08:59:11;102210.78;;;8.23;70.58
64853;BME280;56050;55.558;-4.644;2023-01-30T09:01:36;102216.94;;;8.24;70.71
64853;BME280;56050;55.558;-4.644;2023-01-30T09:04:02;102222.97;;;8.21;70.93
64853;BME280;56050;55.558;-4.644;2023-01-30T09:06:28;102217.03;;;8.15;71.02
64853;BME280;56050;55.558;-4.644;2023-01-30T09:08:53;102211.75;;;8.07;71.16
64853;BME280;56050;55.558;-4.644;2023-01-30T09:11:18;102214.53;;;7.98;71.61
64853;BME280;56050;55.558;-4.644;2023-01-30T09:13:44;102209.84;;;7.95;71.63
64853;BME280;56050;55.558;-4.644;2023-01-30T09:16:10;102210.81;;;7.91;72.01
64853;BME280;56050;55.558;-4.644;2023-01-30T09:18:41;102212.47;;;7.83;72.19
64853;BME280;56050;55.558;-4.644;2023-01-30T09:21:08;102206.31;;;7.83;72.58
64853;BME280;56050;55.558;-4.644;2023-01-30T09:23:34;102215.81;;;7.80;72.54
64853;BME280;56050;55.558;-4.644;2023-01-30T09:26:00;102211.25;;;7.81;72.93
64853;BME280;56050;55.558;-4.644;2023-01-30T09:28:26;102219.59;;;7.79;72.82
64853;BME280;56050;55.558;-4.644;2023-01-30T09:30:51;102218.63;;;7.84;72.61
64853;BME280;56050;55.558;-4.644;2023-01-30T09:33:17;102221.31;;;7.84;72.40
64853;BME280;56050;55.558;-4.644;2023-01-30T09:35:47;102230.16;;;7.84;72.54
64853;BME280;56050;55.558;-4.644;2023-01-30T09:38:13;102251.28;;;7.86;72.60
64853;BME280;56050;55.558;-4.644;2023-01-30T09:43:21;102259.69;;;7.96;72.48
64853;BME280;56050;55.558;-4.644;2023-01-30T09:51:54;102259.41;;;8.10;72.12
64853;BME280;56050;55.558;-4.644;2023-01-30T09:54:24;102273.19;;;8.20;71.96
64853;BME280;56050;55.558;-4.644;2023-01-30T09:56:57;102276.28;;;8.31;71.72
64853;BME280;56050;55.558;-4.644;2023-01-30T09:59:33;102285.00;;;8.40;71.78
64853;BME280;56050;55.558;-4.644;2023-01-30T10:02:17;102308.09;;;8.53;71.71
64853;BME280;56050;55.558;-4.644;2023-01-30T10:04:45;102304.41;;;8.70;71.53
64853;BME280;56050;55.558;-4.644;2023-01-30T10:12:18;102318.56;;;8.91;71.25
64853;BME280;56050;55.558;-4.644;2023-01-30T10:17:57;102316.75;;;8.95;71.19
64853;BME280;56050;55.558;-4.644;2023-01-30T10:20:58;102329.44;;;8.95;71.30
64853;BME280;56050;55.558;-4.644;2023-01-30T10:26:23;102321.81;;;8.97;70.78
64853;BME280;56050;55.558;-4.644;2023-01-30T10:29:00;102315.88;;;8.91;70.91
64853;BME280;56050;55.558;-4.644;2023-01-30T10:31:42;102311.59;;;8.90;70.86
64853;BME280;56050;55.558;-4.644;2023-01-30T10:34:18;102311.94;;;8.89;70.82
64853;BME280;56050;55.558;-4.644;2023-01-30T10:37:05;102308.13;;;8.90;70.69
64853;BME280;56050;55.558;-4.644;2023-01-30T10:39:35;102309.81;;;8.94;70.44
64853;BME280;56050;55.558;-4.644;2023-01-30T10:42:11;102299.84;;;8.95;70.37
64853;BME280;56050;55.558;-4.644;2023-01-30T10:44:38;102302.19;;;8.96;70.14
64853;BME280;56050;55.558;-4.644;2023-01-30T10:49:52;102314.94;;;8.87;68.42
64853;BME280;56050;55.558;-4.644;2023-01-30T11:00:29;102335.78;;;8.78;67.68
64853;BME280;56050;55.558;-4.644;2023-01-30T11:05:34;102349.97;;;8.78;68.03
64853;BME280;56050;55.558;-4.644;2023-01-30T11:08:20;102348.09;;;8.79;68.20
64853;BME280;56050;55.558;-4.644;2023-01-30T11:10:45;102351.56;;;8.79;68.17
64853;BME280;56050;55.558;-4.644;2023-01-30T11:15:45;102339.38;;;8.82;68.44
64853;BME280;56050;55.558;-4.644;2023-01-30T11:18:12;102338.69;;;8.85;68.45
64853;BME280;56050;55.558;-4.644;2023-01-30T11:20:43;102331.53;;;8.89;68.48
64853;BME280;56050;55.558;-4.644;2023-01-30T11:23:35;102335.91;;;8.94;68.55
64853;BME280;56050;55.558;-4.644;2023-01-30T11:26:03;102337.56;;;8.98;68.59
64853;BME280;56050;55.558;-4.644;2023-01-30T11:28:41;102336.59;;;9.03;68.59
64853;BME280;56050;55.558;-4.644;2023-01-30T11:31:27;102337.81;;;9.05;68.68
64853;BME280;56050;55.558;-4.644;2023-01-30T11:34:01;102336.47;;;9.11;68.50
64853;BME280;56050;55.558;-4.644;2023-01-30T11:36:29;102346.09;;;9.12;68.64
64853;BME280;56050;55.558;-4.644;2023-01-30T11:39:03;102358.56;;;9.17;68.47
64853;BME280;56050;55.558;-4.644;2023-01-30T11:41:43;102357.09;;;9.19;68.27
64853;BME280;56050;55.558;-4.644;2023-01-30T11:44:33;102360.09;;;9.18;68.47
64853;BME280;56050;55.558;-4.644;2023-01-30T11:47:03;102361.34;;;9.20;68.46
64853;BME280;56050;55.558;-4.644;2023-01-30T11:49:51;102364.94;;;9.24;68.34
64853;BME280;56050;55.558;-4.644;2023-01-30T11:52:24;102368.50;;;9.28;68.50
64853;BME280;56050;55.558;-4.644;2023-01-30T11:54:52;102361.66;;;9.31;68.43
64853;BME280;56050;55.558;-4.644;2023-01-30T11:57:19;102367.16;;;9.34;68.44
64853;BME280;56050;55.558;-4.644;2023-01-30T11:59:47;102358.78;;;9.36;68.37
64853;BME280;56050;55.558;-4.644;2023-01-30T12:02:27;102362.00;;;9.41;68.22
64853;BME280;56050;55.558;-4.644;2023-01-30T12:04:59;102370.63;;;9.47;68.40
64853;BME280;56050;55.558;-4.644;2023-01-30T12:07:30;102360.75;;;9.51;68.30
64853;BME280;56050;55.558;-4.644;2023-01-30T12:09:57;102360.63;;;9.60;68.17
64853;BME280;56050;55.558;-4.644;2023-01-30T12:12:48;102364.66;;;9.66;68.09
64853;BME280;56050;55.558;-4.644;2023-01-30T12:15:28;102374.41;;;9.70;68.23
64853;BME280;56050;55.558;-4.644;2023-01-30T12:18:07;102362.28;;;9.76;68.14
64853;BME280;56050;55.558;-4.644;2023-01-30T12:23:17;102367.41;;;9.93;68.17
64853;BME280;56050;55.558;-4.644;2023-01-30T12:26:19;102365.44;;;10.06;68.00
64853;BME280;56050;55.558;-4.644;2023-01-30T12:32:07;102351.47;;;10.28;67.59
64853;BME280;56050;55.558;-4.644;2023-01-30T12:34:35;102352.53;;;10.39;67.29
64853;BME280;56050;55.558;-4.644;2023-01-30T12:45:39;102354.53;;;10.42;65.84
64853;BME280;56050;55.558;-4.644;2023-01-30T12:51:04;102359.03;;;10.38;65.37
64853;BME280;56050;55.558;-4.644;2023-01-30T12:53:39;102354.00;;;10.37;65.68
64853;BME280;56050;55.558;-4.644;2023-01-30T13:04:33;102365.97;;;10.24;65.56
64853;BME280;56050;55.558;-4.644;2023-01-30T13:13:21;102362.94;;;10.25;64.58
64853;BME280;56050;55.558;-4.644;2023-01-30T13:15:36;102362.13;;;10.25;64.16
64853;BME280;56050;55.558;-4.644;2023-01-30T13:21:03;102341.63;;;10.20;63.92
64853;BME280;56050;55.558;-4.644;2023-01-30T13:26:22;102347.38;;;10.19;64.38
64853;BME280;56050;55.558;-4.644;2023-01-30T13:28:56;102345.13;;;10.21;64.25
64853;BME280;56050;55.558;-4.644;2023-01-30T13:31:26;102355.53;;;10.22;64.46
64853;BME280;56050;55.558;-4.644;2023-01-30T13:34:09;102340.38;;;10.30;64.51
64853;BME280;56050;55.558;-4.644;2023-01-30T13:36:45;102340.91;;;10.35;64.40
64853;BME280;56050;55.558;-4.644;2023-01-30T13:39:18;102343.34;;;10.40;64.33
64853;BME280;56050;55.558;-4.644;2023-01-30T13:41:52;102343.41;;;10.44;64.15
64853;BME280;56050;55.558;-4.644;2023-01-30T13:44:27;102341.88;;;10.43;64.20
64853;BME280;56050;55.558;-4.644;2023-01-30T13:47:07;102338.38;;;10.42;64.33
64853;BME280;56050;55.558;-4.644;2023-01-30T13:49:41;102333.44;;;10.44;64.14
64853;BME280;56050;55.558;-4.644;2023-01-30T13:55:08;102334.53;;;10.28;63.75
64853;BME280;56050;55.558;-4.644;2023-01-30T13:58:00;102336.06;;;10.13;64.19
64853;BME280;56050;55.558;-4.644;2023-01-30T14:00:34;102335.72;;;10.02;64.53
64853;BME280;56050;55.558;-4.644;2023-01-30T14:06:01;102324.13;;;9.86;65.23
64853;BME280;56050;55.558;-4.644;2023-01-30T14:11:34;102308.66;;;9.83;65.62
64853;BME280;56050;55.558;-4.644;2023-01-30T14:16:51;102284.97;;;9.89;65.63
64853;BME280;56050;55.558;-4.644;2023-01-30T14:21:57;102297.41;;;9.93;65.75
64853;BME280;56050;55.558;-4.644;2023-01-30T14:24:23;102297.06;;;9.95;65.75
64853;BME280;56050;55.558;-4.644;2023-01-30T14:29:50;102308.34;;;10.00;65.76
64853;BME280;56050;55.558;-4.644;2023-01-30T14:32:52;102313.41;;;10.02;65.65
64853;BME280;56050;55.558;-4.644;2023-01-30T14:35:26;102305.41;;;10.05;65.58
64853;BME280;56050;55.558;-4.644;2023-01-30T14:40:38;102317.88;;;10.10;65.34
64853;BME280;56050;55.558;-4.644;2023-01-30T14:45:51;102324.16;;;10.14;65.34
64853;BME280;56050;55.558;-4.644;2023-01-30T14:53:46;102327.84;;;10.22;64.62
64853;BME280;56050;55.558;-4.644;2023-01-30T14:56:12;102324.00;;;10.23;64.78
64853;BME280;56050;55.558;-4.644;2023-01-30T14:58:38;102342.84;;;10.23;64.78
64853;BME280;56050;55.558;-4.644;2023-01-30T15:01:03;102333.97;;;10.22;64.66
64853;BME280;56050;55.558;-4.644;2023-01-30T15:03:31;102332.44;;;10.21;64.58